createdAt,value
2023-01-30T00:00:58.011Z,8.36
2023-01-30T00:03:25.536Z,8.34
2023-01-30T00:05:53.122Z,8.35
2023-01-30T00:08:20.706Z,8.34
2023-01-30T00:10:48.297Z,8.35
2023-01-30T00:13:16.195Z,8.35
2023-01-30T00:15:43.418Z,8.33
2023-01-30T00:18:10.682Z,8.30
2023-01-30T00:20:38.095Z,8.28
2023-01-30T00:23:05.717Z,8.26
2023-01-30T00:25:33.092Z,8.24
2023-01-30T00:28:01.404Z,8.22
2023-01-30T00:30:30.075Z,8.18
2023-01-30T00:32:59.249Z,8.14
2023-01-30T00:35:28.920Z,8.08
2023-01-30T00:37:59.609Z,8.05
2023-01-30T00:40:28.464Z,8.06
2023-01-30T00:43:14.774Z,8.08
2023-01-30T00:46:03.858Z,8.05
2023-01-30T00:48:31.759Z,8.03
2023-01-30T00:50:58.923Z,7.99
2023-01-30T00:53:27.576Z,7.94
2023-01-30T00:55:55.824Z,7.93
2023-01-30T00:58:24.137Z,7.90
2023-01-30T01:00:51.874Z,7.89
2023-01-30T01:03:19.861Z,7.87
2023-01-30T01:05:47.491Z,7.87
2023-01-30T01:08:14.866Z,7.85
2023-01-30T01:10:42.366Z,7.80
2023-01-30T01:13:10.843Z,7.75
2023-01-30T01:15:38.491Z,7.69
2023-01-30T01:18:06.384Z,7.66
2023-01-30T01:20:33.660Z,7.62
2023-01-30T01:23:00.796Z,7.59
2023-01-30T01:25:27.879Z,7.59
2023-01-30T01:27:55.466Z,7.54
2023-01-30T01:30:22.863Z,7.55
2023-01-30T01:32:50.072Z,7.57
2023-01-30T01:35:17.533Z,7.56
2023-01-30T01:37:44.855Z,7.54
2023-01-30T01:40:39.780Z,7.52
2023-01-30T01:43:22.175Z,7.53
2023-01-30T01:45:58.036Z,7.51
2023-01-30T01:48:34.643Z,7.52
2023-01-30T01:51:09.135Z,7.52
2023-01-30T01:53:58.363Z,7.54
2023-01-30T01:56:26.118Z,7.52
2023-01-30T01:58:57.422Z,7.47
2023-01-30T02:01:24.884Z,7.46
2023-01-30T02:03:58.619Z,7.43
2023-01-30T02:06:25.785Z,7.39
2023-01-30T02:08:58.447Z,7.34
2023-01-30T02:12:01.066Z,7.27
2023-01-30T02:14:28.809Z,7.24
2023-01-30T02:16:55.799Z,7.27
2023-01-30T02:19:37.103Z,7.31
2023-01-30T02:22:22.691Z,7.36
2023-01-30T02:24:50.051Z,7.35
2023-01-30T02:27:38.911Z,7.34
2023-01-30T02:30:28.017Z,7.33
2023-01-30T02:33:01.120Z,7.31
2023-01-30T02:35:55.912Z,7.32
2023-01-30T02:38:44.813Z,7.28
2023-01-30T02:41:44.975Z,7.23
2023-01-30T02:44:24.838Z,7.19
2023-01-30T02:46:57.826Z,7.14
2023-01-30T02:49:30.875Z,7.14
2023-01-30T02:52:01.649Z,7.10
2023-01-30T02:54:28.935Z,7.09
2023-01-30T02:56:59.186Z,7.08
2023-01-30T02:59:45.753Z,7.05
2023-01-30T03:02:31.370Z,7.04
2023-01-30T03:05:10.996Z,7.04
2023-01-30T03:07:50.142Z,7.04
2023-01-30T03:10:41.875Z,7.04
2023-01-30T03:13:21.759Z,7.04
2023-01-30T03:15:54.109Z,7.01
2023-01-30T03:18:22.347Z,6.95
2023-01-30T03:20:49.491Z,6.91
2023-01-30T03:23:16.608Z,6.90
2023-01-30T03:25:46.275Z,6.91
2023-01-30T03:28:16.895Z,6.92
2023-01-30T03:30:44.514Z,6.92
2023-01-30T03:33:11.689Z,6.92
2023-01-30T03:35:42.659Z,6.93
2023-01-30T03:38:12.440Z,6.94
2023-01-30T03:40:39.535Z,6.97
2023-01-30T03:43:08.696Z,7.01
2023-01-30T03:45:36.985Z,7.01
2023-01-30T03:48:04.061Z,7.01
2023-01-30T03:50:31.703Z,6.99
2023-01-30T03:52:59.804Z,6.99
2023-01-30T03:55:27.033Z,7.01
2023-01-30T03:57:57.966Z,7.04
2023-01-30T04:00:28.163Z,7.01
2023-01-30T04:02:57.300Z,7.03
2023-01-30T04:05:24.796Z,6.99
2023-01-30T04:07:59.904Z,6.97
2023-01-30T04:10:27.628Z,6.95
2023-01-30T04:12:54.985Z,6.91
2023-01-30T04:15:22.975Z,6.91
2023-01-30T04:18:13.184Z,6.93
2023-01-30T04:21:04.028Z,6.94
2023-01-30T04:23:36.484Z,6.95
2023-01-30T04:26:04.724Z,6.97
2023-01-30T04:28:34.911Z,6.96
2023-01-30T04:31:02.286Z,6.91
2023-01-30T04:33:52.515Z,6.87
2023-01-30T04:36:19.891Z,6.87
2023-01-30T04:38:46.907Z,6.89
2023-01-30T04:41:14.012Z,6.91
2023-01-30T04:43:42.865Z,6.89
2023-01-30T04:46:39.292Z,6.85
2023-01-30T04:49:06.451Z,6.85
2023-01-30T04:51:33.444Z,6.87
2023-01-30T04:54:00.874Z,6.88
2023-01-30T04:56:27.979Z,6.92
2023-01-30T04:58:55.071Z,6.96
2023-01-30T05:01:32.007Z,7.05
2023-01-30T05:04:00.117Z,7.11
2023-01-30T05:06:27.647Z,7.09
2023-01-30T05:08:56.697Z,7.04
2023-01-30T05:11:25.783Z,6.97
2023-01-30T05:13:53.224Z,6.87
2023-01-30T05:16:21.767Z,6.82
2023-01-30T05:18:49.162Z,6.87
2023-01-30T05:21:21.599Z,6.95
2023-01-30T05:23:49.105Z,6.98
2023-01-30T05:26:16.380Z,6.97
2023-01-30T05:28:43.489Z,6.93
2023-01-30T05:31:13.292Z,6.87
2023-01-30T05:33:41.670Z,6.92
2023-01-30T05:36:13.954Z,6.99
2023-01-30T05:38:43.552Z,7.02
2023-01-30T05:41:11.887Z,6.99
2023-01-30T05:43:39.132Z,6.99
2023-01-30T05:46:07.539Z,6.97
2023-01-30T05:48:34.812Z,6.91
2023-01-30T05:51:02.213Z,6.86
2023-01-30T05:53:34.646Z,6.86
2023-01-30T05:56:04.835Z,6.80
2023-01-30T05:58:33.107Z,6.84
2023-01-30T06:01:01.771Z,6.80
2023-01-30T06:03:28.779Z,6.76
2023-01-30T06:05:56.375Z,6.71
2023-01-30T06:08:23.617Z,6.64
2023-01-30T06:10:50.992Z,6.63
2023-01-30T06:13:18.161Z,6.65
2023-01-30T06:15:45.721Z,6.61
2023-01-30T06:18:12.759Z,6.59
2023-01-30T06:20:39.813Z,6.55
2023-01-30T06:23:06.893Z,6.55
2023-01-30T06:25:34.020Z,6.57
2023-01-30T06:28:01.256Z,6.63
2023-01-30T06:30:28.594Z,6.71
2023-01-30T06:32:55.700Z,6.75
2023-01-30T06:35:22.739Z,6.78
2023-01-30T06:37:49.742Z,6.84
2023-01-30T06:40:17.290Z,7.00
2023-01-30T06:42:48.453Z,7.03
2023-01-30T06:45:17.770Z,7.05
2023-01-30T06:47:50.510Z,7.03
2023-01-30T06:50:19.573Z,7.09
2023-01-30T06:52:47.819Z,7.09
2023-01-30T06:55:17.865Z,7.15
2023-01-30T06:57:46.081Z,7.34
2023-01-30T07:00:16.661Z,7.55
2023-01-30T07:02:44.047Z,7.60
2023-01-30T07:05:11.820Z,7.65
2023-01-30T07:07:39.618Z,7.76
2023-01-30T07:10:10.168Z,8.07
2023-01-30T07:12:40.583Z,8.34
2023-01-30T07:15:08.550Z,8.55
2023-01-30T07:17:35.475Z,8.65
2023-01-30T07:20:02.603Z,8.71
2023-01-30T07:22:29.495Z,8.75
2023-01-30T07:24:56.435Z,8.81
2023-01-30T07:27:23.494Z,8.89
2023-01-30T07:29:51.923Z,9.03
2023-01-30T07:32:20.191Z,9.21
2023-01-30T07:34:47.924Z,9.37
2023-01-30T07:37:15.274Z,9.39
2023-01-30T07:39:42.655Z,9.43
2023-01-30T07:42:09.629Z,9.58
2023-01-30T07:44:36.597Z,9.66
2023-01-30T07:47:03.968Z,9.64
2023-01-30T07:49:30.993Z,9.75
2023-01-30T07:51:58.229Z,9.72
2023-01-30T07:54:25.192Z,9.79
2023-01-30T07:56:52.322Z,9.91
2023-01-30T07:59:19.247Z,9.91
2023-01-30T08:01:46.296Z,9.88
2023-01-30T08:04:13.387Z,9.90
2023-01-30T08:06:40.346Z,9.90
2023-01-30T08:09:07.931Z,10.01
2023-01-30T08:11:35.307Z,10.19
2023-01-30T08:14:03.148Z,10.17
2023-01-30T08:16:32.543Z,10.30
2023-01-30T08:18:59.910Z,10.48
2023-01-30T08:21:27.062Z,10.66
2023-01-30T08:23:54.138Z,10.75
2023-01-30T08:26:21.237Z,10.76
2023-01-30T08:28:48.727Z,10.88
2023-01-30T08:31:17.043Z,11.06
2023-01-30T08:33:44.543Z,11.28
2023-01-30T08:36:11.704Z,11.41
2023-01-30T08:38:38.635Z,11.46
2023-01-30T08:41:08.463Z,11.59
2023-01-30T08:43:35.975Z,11.68
2023-01-30T08:46:04.999Z,11.63
2023-01-30T08:48:43.538Z,11.82
2023-01-30T08:51:16.241Z,11.96
2023-01-30T08:53:43.269Z,12.14
2023-01-30T08:56:10.508Z,12.37
2023-01-30T08:58:37.438Z,12.57
2023-01-30T09:01:07.818Z,12.71
2023-01-30T09:03:35.543Z,12.81
2023-01-30T09:06:02.520Z,12.88
2023-01-30T09:08:29.565Z,12.91
2023-01-30T09:11:06.363Z,13.00
2023-01-30T09:13:35.182Z,13.12
2023-01-30T09:16:02.455Z,13.27
2023-01-30T09:18:29.464Z,13.41
2023-01-30T09:21:04.046Z,13.65
2023-01-30T09:23:31.227Z,13.60
2023-01-30T09:25:58.392Z,13.61
2023-01-30T09:28:25.534Z,13.75
2023-01-30T09:30:52.932Z,13.81
2023-01-30T09:33:20.718Z,13.88
2023-01-30T09:35:48.585Z,14.05
2023-01-30T09:38:16.190Z,14.08
2023-01-30T09:41:18.502Z,14.18
2023-01-30T09:44:14.572Z,14.25
2023-01-30T09:46:47.624Z,14.35
2023-01-30T09:49:23.620Z,14.44
2023-01-30T09:51:53.672Z,14.44
2023-01-30T09:54:30.796Z,14.60
2023-01-30T09:57:20.983Z,14.60
2023-01-30T10:00:15.651Z,14.51
2023-01-30T10:02:51.848Z,14.55
2023-01-30T10:05:19.682Z,14.77
2023-01-30T10:07:57.862Z,14.66
2023-01-30T10:11:00.787Z,14.86
2023-01-30T10:13:52.570Z,14.92
2023-01-30T10:16:31.903Z,15.04
2023-01-30T10:19:34.799Z,15.21
2023-01-30T10:22:39.649Z,15.00
2023-01-30T10:25:22.220Z,14.60
2023-01-30T10:27:56.773Z,14.76
2023-01-30T10:30:24.724Z,14.75
2023-01-30T10:33:02.380Z,14.57
2023-01-30T10:35:39.427Z,14.52
2023-01-30T10:38:24.843Z,14.68
2023-01-30T10:41:33.249Z,14.62
2023-01-30T10:44:04.467Z,14.67
2023-01-30T10:46:43.445Z,14.81
2023-01-30T10:49:43.700Z,15.00
2023-01-30T10:52:35.734Z,14.63
2023-01-30T10:55:36.829Z,14.92
2023-01-30T10:58:20.052Z,14.87
2023-01-30T11:00:52.159Z,14.78
2023-01-30T11:03:36.514Z,14.65
2023-01-30T11:06:08.268Z,14.52
2023-01-30T11:08:36.086Z,14.69
2023-01-30T11:11:29.477Z,14.74
2023-01-30T11:14:05.625Z,14.77
2023-01-30T11:16:43.464Z,14.72
2023-01-30T11:19:20.581Z,14.73
2023-01-30T11:21:55.012Z,14.85
2023-01-30T11:24:31.968Z,14.66
2023-01-30T11:27:28.262Z,14.46
2023-01-30T11:30:04.526Z,14.51
2023-01-30T11:32:31.722Z,14.65
2023-01-30T11:35:20.662Z,14.91
2023-01-30T11:37:47.891Z,14.58
2023-01-30T11:40:17.794Z,14.67
2023-01-30T11:42:49.172Z,14.77
2023-01-30T11:45:18.664Z,14.65
2023-01-30T11:48:03.008Z,14.62
2023-01-30T11:50:49.843Z,14.49
2023-01-30T11:53:44.943Z,14.55
2023-01-30T11:56:17.488Z,14.84
2023-01-30T11:58:51.010Z,14.95
2023-01-30T12:01:18.475Z,14.83
2023-01-30T12:03:51.901Z,14.53
2023-01-30T12:06:28.891Z,14.04
2023-01-30T12:08:57.252Z,13.54
2023-01-30T12:11:54.661Z,13.61
2023-01-30T12:14:39.288Z,13.62
2023-01-30T12:17:21.662Z,13.52
2023-01-30T12:19:56.602Z,13.31
2023-01-30T12:22:23.692Z,13.22
2023-01-30T12:25:02.033Z,13.45
2023-01-30T12:27:49.034Z,13.43
2023-01-30T12:33:06.668Z,13.38
2023-01-30T12:36:04.711Z,13.30
2023-01-30T12:38:46.001Z,13.54
2023-01-30T12:41:19.349Z,13.40
2023-01-30T12:43:59.431Z,13.50
2023-01-30T12:46:33.695Z,13.68
2023-01-30T12:49:14.344Z,13.48
2023-01-30T12:52:18.895Z,13.30
2023-01-30T12:55:24.671Z,13.24
2023-01-30T12:57:59.724Z,13.40
2023-01-30T13:00:48.666Z,13.55
2023-01-30T13:03:36.410Z,13.97
2023-01-30T13:06:40.863Z,14.21
2023-01-30T13:09:41.714Z,14.28
2023-01-30T13:12:17.401Z,14.42
2023-01-30T13:15:02.393Z,14.46
2023-01-30T13:17:38.260Z,14.47
2023-01-30T13:20:40.020Z,14.55
2023-01-30T13:23:10.251Z,14.60
2023-01-30T13:26:19.254Z,14.51
2023-01-30T13:28:52.721Z,14.47
2023-01-30T13:31:24.019Z,14.30
2023-01-30T13:33:57.395Z,14.36
2023-01-30T13:36:27.569Z,14.40
2023-01-30T13:39:06.289Z,14.49
2023-01-30T13:41:38.479Z,14.51
2023-01-30T13:44:31.067Z,14.53
2023-01-30T13:47:06.021Z,14.44
2023-01-30T13:49:50.668Z,14.43
2023-01-30T13:52:30.003Z,14.37
2023-01-30T13:54:57.064Z,14.22
2023-01-30T13:57:35.962Z,14.09
2023-01-30T14:00:05.968Z,14.08
2023-01-30T14:03:04.534Z,14.24
2023-01-30T14:06:00.862Z,14.28
2023-01-30T14:08:33.742Z,14.41
2023-01-30T14:11:01.552Z,14.35
2023-01-30T14:13:30.660Z,14.51
2023-01-30T14:16:11.890Z,14.26
2023-01-30T14:18:39.137Z,14.22
2023-01-30T14:21:45.333Z,14.26
2023-01-30T14:24:25.153Z,14.26
2023-01-30T14:27:01.215Z,14.23
2023-01-30T14:29:43.003Z,14.22
2023-01-30T14:32:13.764Z,14.20
2023-01-30T14:34:45.342Z,14.14
2023-01-30T14:37:41.655Z,13.99
2023-01-30T14:40:23.961Z,13.67
2023-01-30T14:43:13.152Z,13.54
2023-01-30T14:45:47.411Z,13.63
2023-01-30T14:48:37.654Z,13.73
2023-01-30T14:51:29.451Z,13.70
2023-01-30T14:54:14.867Z,13.67
2023-01-30T14:56:50.737Z,13.60
2023-01-30T14:59:17.758Z,13.53
2023-01-30T15:02:12.195Z,13.51
2023-01-30T15:04:44.624Z,13.50
2023-01-30T15:07:27.423Z,13.47
2023-01-30T15:10:19.899Z,13.45
2023-01-30T15:13:08.378Z,13.41
2023-01-30T15:15:48.498Z,13.40
2023-01-30T15:18:26.911Z,13.37
2023-01-30T15:21:31.821Z,13.32
2023-01-30T15:24:43.448Z,13.30
2023-01-30T15:27:13.600Z,13.28
2023-01-30T15:30:02.859Z,13.23
2023-01-30T15:32:32.183Z,13.15
2023-01-30T15:35:11.293Z,13.12
2023-01-30T15:37:58.446Z,13.09
2023-01-30T15:40:28.749Z,13.05
2023-01-30T15:43:01.795Z,13.00
2023-01-30T15:45:44.705Z,12.91
2023-01-30T15:48:47.047Z,12.91
2023-01-30T15:51:17.154Z,12.87
2023-01-30T15:53:46.662Z,12.81
2023-01-30T15:56:40.917Z,12.72
2023-01-30T15:59:23.592Z,12.68
2023-01-30T16:01:59.907Z,12.66
2023-01-30T16:04:29.114Z,12.64
2023-01-30T16:06:56.283Z,12.62
2023-01-30T16:09:25.456Z,12.61
2023-01-30T16:11:52.834Z,12.61
2023-01-30T16:14:22.253Z,12.58
2023-01-30T16:17:06.974Z,12.56
2023-01-30T16:19:38.127Z,12.54
2023-01-30T16:22:15.722Z,12.48
2023-01-30T16:24:46.594Z,12.50
2023-01-30T16:27:20.287Z,12.48
2023-01-30T16:29:51.389Z,12.46
2023-01-30T16:32:24.755Z,12.46
2023-01-30T16:34:51.811Z,12.48
2023-01-30T16:37:18.792Z,12.52
2023-01-30T16:39:46.624Z,12.55
2023-01-30T16:42:31.802Z,12.52
2023-01-30T16:45:21.831Z,12.50
2023-01-30T16:47:49.117Z,12.48
2023-01-30T16:50:23.254Z,12.47
2023-01-30T16:52:55.774Z,12.51
2023-01-30T16:55:27.221Z,12.52
2023-01-30T16:57:57.835Z,12.52
2023-01-30T17:00:40.194Z,12.47
2023-01-30T17:03:20.403Z,12.44
2023-01-30T17:05:49.420Z,12.40
2023-01-30T17:08:31.807Z,12.39
2023-01-30T17:11:03.018Z,12.40
2023-01-30T17:13:43.430Z,12.40
2023-01-30T17:16:22.867Z,12.34
2023-01-30T17:18:51.991Z,12.36
2023-01-30T17:21:20.985Z,12.34
2023-01-30T17:23:53.131Z,12.32
2023-01-30T17:26:20.436Z,12.30
2023-01-30T17:28:47.683Z,12.28
2023-01-30T17:31:16.523Z,12.25
2023-01-30T17:33:44.361Z,12.22
2023-01-30T17:36:24.359Z,12.13
2023-01-30T17:38:52.094Z,12.12
2023-01-30T17:41:33.618Z,11.98
2023-01-30T17:44:00.739Z,11.85
2023-01-30T17:46:36.033Z,11.78
2023-01-30T17:49:06.527Z,11.66
2023-01-30T17:51:33.702Z,11.55
2023-01-30T17:54:00.719Z,11.46
2023-01-30T17:56:38.290Z,11.38
2023-01-30T17:59:13.882Z,11.30
2023-01-30T18:01:42.268Z,11.23
2023-01-30T18:04:10.043Z,11.14
2023-01-30T18:06:38.828Z,11.11
2023-01-30T18:09:05.923Z,11.06
2023-01-30T18:11:33.306Z,11.01
2023-01-30T18:14:00.241Z,10.97
2023-01-30T18:16:31.275Z,10.91
2023-01-30T18:18:59.969Z,10.84
2023-01-30T18:21:27.161Z,10.79
2023-01-30T18:23:54.362Z,10.75
2023-01-30T18:26:21.714Z,10.71
2023-01-30T18:28:49.271Z,10.64
2023-01-30T18:31:17.137Z,10.55
2023-01-30T18:33:47.462Z,10.51
2023-01-30T18:36:16.976Z,10.46
2023-01-30T18:38:44.739Z,10.41
2023-01-30T18:41:19.931Z,10.41
2023-01-30T18:43:51.023Z,10.44
2023-01-30T18:46:18.507Z,10.48
2023-01-30T18:48:46.654Z,10.53
2023-01-30T18:51:25.017Z,10.55
2023-01-30T18:53:53.679Z,10.52
2023-01-30T18:56:24.812Z,10.44
2023-01-30T18:58:56.635Z,10.35
2023-01-30T19:01:30.055Z,10.29
2023-01-30T19:03:58.581Z,10.27
2023-01-30T19:06:28.052Z,10.24
2023-01-30T19:08:57.069Z,10.19
2023-01-30T19:11:43.049Z,10.09
2023-01-30T19:14:10.923Z,10.06
2023-01-30T19:16:39.525Z,10.13
2023-01-30T19:19:08.131Z,10.10
2023-01-30T19:21:36.343Z,10.08
2023-01-30T19:24:07.374Z,10.03
2023-01-30T19:26:35.180Z,10.01
2023-01-30T19:29:02.246Z,10.00
2023-01-30T19:31:29.868Z,9.98
2023-01-30T19:34:00.807Z,9.95
2023-01-30T19:36:30.223Z,9.89
2023-01-30T19:38:59.667Z,9.84
2023-01-30T19:41:29.508Z,9.79
2023-01-30T19:43:58.224Z,9.75
2023-01-30T19:46:26.305Z,9.73
2023-01-30T19:48:53.674Z,9.70
2023-01-30T19:51:23.958Z,9.65
2023-01-30T19:53:59.214Z,9.61
2023-01-30T19:56:27.914Z,9.59
2023-01-30T19:58:57.346Z,9.64
2023-01-30T20:01:27.742Z,9.60
2023-01-30T20:03:56.918Z,9.54
2023-01-30T20:06:26.794Z,9.51
2023-01-30T20:09:02.730Z,9.39
2023-01-30T20:11:30.638Z,9.30
2023-01-30T20:14:02.339Z,9.25
2023-01-30T20:16:31.412Z,9.21
2023-01-30T20:19:00.609Z,9.27
2023-01-30T20:21:29.545Z,9.29
2023-01-30T20:23:57.765Z,9.28
2023-01-30T20:26:31.384Z,9.29
2023-01-30T20:28:58.962Z,9.23
2023-01-30T20:31:28.346Z,9.26
2023-01-30T20:33:57.877Z,9.32
2023-01-30T20:36:27.255Z,9.37
2023-01-30T20:38:56.117Z,9.43
2023-01-30T20:41:28.965Z,9.43
2023-01-30T20:43:59.981Z,9.42
2023-01-30T20:46:35.525Z,9.35
2023-01-30T20:49:03.203Z,9.25
2023-01-30T20:51:32.939Z,9.15
2023-01-30T20:54:04.038Z,9.07
2023-01-30T20:56:35.926Z,9.02
2023-01-30T20:59:05.277Z,9.02
2023-01-30T21:01:32.736Z,8.91
2023-01-30T21:04:00.267Z,8.82
2023-01-30T21:06:37.027Z,8.70
2023-01-30T21:09:13.808Z,8.68
2023-01-30T21:11:41.119Z,8.71
2023-01-30T21:14:08.364Z,8.58
2023-01-30T21:16:37.081Z,8.48
2023-01-30T21:19:10.067Z,8.44
2023-01-30T21:21:47.023Z,8.42
2023-01-30T21:24:19.580Z,8.52
2023-01-30T21:26:48.541Z,8.67
2023-01-30T21:29:19.182Z,8.77
2023-01-30T21:31:50.077Z,8.87
2023-01-30T21:34:17.993Z,8.87
2023-01-30T21:37:05.740Z,8.98
2023-01-30T21:39:53.168Z,9.10
2023-01-30T21:42:40.252Z,9.10
2023-01-30T21:45:08.719Z,8.98
2023-01-30T21:47:36.993Z,8.87
2023-01-30T21:50:05.223Z,8.84
2023-01-30T21:52:35.845Z,8.77
2023-01-30T21:55:03.329Z,8.84
2023-01-30T21:57:31.171Z,8.91
2023-01-30T21:59:59.563Z,8.88
2023-01-30T22:02:28.140Z,8.81
2023-01-30T22:04:55.868Z,8.75
2023-01-30T22:07:23.466Z,8.77
2023-01-30T22:09:51.154Z,8.82
2023-01-30T22:12:18.624Z,8.82
2023-01-30T22:14:45.956Z,8.93
2023-01-30T22:17:13.277Z,9.03
2023-01-30T22:19:40.868Z,9.05
2023-01-30T22:22:07.948Z,9.04
2023-01-30T22:24:36.208Z,9.01
2023-01-30T22:27:03.311Z,8.99
2023-01-30T22:29:30.431Z,8.97
2023-01-30T22:31:58.243Z,8.95
2023-01-30T22:34:25.642Z,8.90
2023-01-30T22:36:53.131Z,8.82
2023-01-30T22:39:20.129Z,8.78
2023-01-30T22:41:47.384Z,8.74
2023-01-30T22:44:14.393Z,8.73
2023-01-30T22:46:41.684Z,8.77
2023-01-30T22:49:09.709Z,8.88
2023-01-30T22:51:40.720Z,8.88
2023-01-30T22:54:12.122Z,8.91
2023-01-30T22:56:41.560Z,8.88
2023-01-30T22:59:09.553Z,8.89
2023-01-30T23:01:45.114Z,8.89
2023-01-30T23:04:13.719Z,8.96
2023-01-30T23:06:41.880Z,8.98
2023-01-30T23:09:11.040Z,8.89
2023-01-30T23:11:41.411Z,8.78
2023-01-30T23:14:12.383Z,8.67
2023-01-30T23:16:41.350Z,8.62
2023-01-30T23:19:09.957Z,8.60
2023-01-30T23:21:40.413Z,8.60
2023-01-30T23:24:19.417Z,8.63
2023-01-30T23:26:51.383Z,8.56
2023-01-30T23:29:20.321Z,8.53
2023-01-30T23:31:48.149Z,8.49
2023-01-30T23:34:17.978Z,8.46
2023-01-30T23:36:46.055Z,8.43
2023-01-30T23:39:14.139Z,8.45
2023-01-30T23:41:42.212Z,8.42
2023-01-30T23:44:09.628Z,8.33
2023-01-30T23:46:41.799Z,8.23
2023-01-30T23:49:11.496Z,8.13
2023-01-30T23:51:41.677Z,8.09
2023-01-30T23:54:09.564Z,8.04
2023-01-30T23:56:40.392Z,8.04
2023-01-30T23:59:08.155Z,8.01
